Terminal Aerodrome Forecast
Issued by NWS

Home | Current Version | Previous Version | Text Only | Print | Product List | Glossary On
Versions: 1 2 3 4 5 6 7 8 9 10 11 12 13
000
FTAK31 PAJN 240500
TAFAPG
TAF
PAPG 240535Z 2406/2506 VRB03KT P6SM BKN150
     FM241000 VRB03KT P6SM BKN025 BKN100
     FM241600 VRB04KT P6SM SCT025 BKN100
     FM242100 06005KT P6SM SCT100
     FM250300 VRB03KT P6SM SCT150
      AMD LTD TO CLD VIS AND WIND 2406/2415=

USA.gov is the U.S. government's official web portal to all federal, state and local government web resources and services.